Time;durP1;ratioP1;P1;durP2;ratioP2;P2;SDS_P1;SDS_P2;PMS_P1;PMS_P2;Temp;Humidity;BMP_temperature;BMP_pressure;BME280_temperature;BME280_humidity;BME280_pressure;Samples;Min_cycle;Max_cycle;Signal;HPM_P1;HPM_P2
2021/12/13 00:01:58;;;;;;;7.17;5.60;;;;;;;;;;5019139;28;20190;-83
2021/12/13 00:04:27;;;;;;;6.23;5.63;;;;;;;;;;5019716;28;20213;-82
2021/12/13 00:06:57;;;;;;;7.30;5.27;;;;;;;;;;5025828;28;20309;-82
2021/12/13 00:09:26;;;;;;;5.87;5.27;;;;;;;;;;5024186;28;20238;-83
2021/12/13 00:11:54;;;;;;;6.33;5.73;;;;;;;;;;5024260;28;20250;-82
2021/12/13 00:14:22;;;;;;;6.33;5.73;;;;;;;;;;5018196;28;20286;-82
2021/12/13 00:16:58;;;;;;;7.70;5.43;;;;;;;;;;5024630;28;20222;-82
2021/12/13 00:19:26;;;;;;;6.60;5.63;;;;;;;;;;5025980;28;20222;-83
2021/12/13 00:21:58;;;;;;;6.00;5.37;;;;;;;;;;5024701;28;20197;-83
2021/12/13 00:24:26;;;;;;;5.77;5.27;;;;;;;;;;5025758;28;20217;-82
2021/12/13 00:27:00;;;;;;;7.03;5.70;;;;;;;;;;5026401;28;20226;-82
2021/12/13 00:29:33;;;;;;;8.10;6.50;;;;;;;;;;5026099;28;20202;-83
2021/12/13 00:32:05;;;;;;;6.43;5.20;;;;;;;;;;5026654;28;20245;-83
2021/12/13 00:34:34;;;;;;;7.00;6.30;;;;;;;;;;5025516;28;20218;-82
2021/12/13 00:37:05;;;;;;;8.97;5.57;;;;;;;;;;5025406;28;20288;-83
2021/12/13 00:39:35;;;;;;;7.40;6.07;;;;;;;;;;5025151;28;20285;-83
2021/12/13 00:42:03;;;;;;;6.67;6.07;;;;;;;;;;5026216;28;20281;-82
2021/12/13 00:44:31;;;;;;;9.33;6.10;;;;;;;;;;5026665;28;20274;-83
2021/12/13 00:47:00;;;;;;;8.00;6.10;;;;;;;;;;5026106;28;20230;-82
2021/12/13 00:49:31;;;;;;;6.37;5.77;;;;;;;;;;5027089;28;20195;-82
2021/12/13 00:51:59;;;;;;;7.07;5.80;;;;;;;;;;5026522;28;20221;-82
2021/12/13 00:54:27;;;;;;;8.47;6.50;;;;;;;;;;5028109;28;20202;-82
2021/12/13 00:57:12;;;;;;;9.67;6.70;;;;;;;;;;5027716;28;20295;-83
2021/12/13 00:59:41;;;;;;;6.73;6.10;;;;;;;;;;5031696;28;20199;-82
2021/12/13 01:02:09;;;;;;;7.17;6.43;;;;;;;;;;5029206;28;20211;-83
2021/12/13 01:04:49;;;;;;;8.77;6.43;;;;;;;;;;5030907;28;20202;-82
2021/12/13 01:07:35;;;;;;;10.47;6.67;;;;;;;;;;5030704;28;20246;-82
2021/12/13 01:10:17;;;;;;;7.10;5.63;;;;;;;;;;5028416;28;20221;-83
2021/12/13 01:12:44;;;;;;;8.90;5.80;;;;;;;;;;5000103;28;20223;-82
2021/12/13 01:15:15;;;;;;;7.43;6.27;;;;;;;;;;5026605;28;20202;-83
2021/12/13 01:17:52;;;;;;;6.33;5.73;;;;;;;;;;5027112;28;20701;-83
2021/12/13 01:20:29;;;;;;;7.90;5.93;;;;;;;;;;5026196;28;20202;-82
2021/12/13 01:23:00;;;;;;;6.40;5.80;;;;;;;;;;5027135;28;20268;-82
2021/12/13 01:25:45;;;;;;;7.70;6.07;;;;;;;;;;5025454;28;20305;-82
2021/12/13 01:28:17;;;;;;;6.60;5.93;;;;;;;;;;5022324;28;20202;-83
2021/12/13 01:30:49;;;;;;;7.17;6.30;;;;;;;;;;5027242;28;20213;-83
2021/12/13 01:33:19;;;;;;;6.87;6.17;;;;;;;;;;5027018;28;20276;-83
2021/12/13 01:35:49;;;;;;;6.70;6.10;;;;;;;;;;5026826;28;20229;-83
2021/12/13 01:38:18;;;;;;;6.53;5.80;;;;;;;;;;5027226;28;20210;-82
2021/12/13 01:40:48;;;;;;;8.97;6.50;;;;;;;;;;5026607;28;20280;-82
2021/12/13 01:43:17;;;;;;;6.90;6.20;;;;;;;;;;5026841;28;20199;-83
2021/12/13 01:45:46;;;;;;;7.63;5.97;;;;;;;;;;5026733;28;20241;-80
2021/12/13 01:48:18;;;;;;;7.37;6.13;;;;;;;;;;5026555;28;20238;-81
2021/12/13 01:50:52;;;;;;;7.40;6.23;;;;;;;;;;5025288;28;20266;-81
2021/12/13 01:53:30;;;;;;;6.83;5.87;;;;;;;;;;5027266;28;20210;-81
2021/12/13 01:55:59;;;;;;;7.27;5.50;;;;;;;;;;5025654;28;20214;-81
2021/12/13 01:58:38;;;;;;;7.53;6.10;;;;;;;;;;5021456;28;20265;-81
2021/12/13 02:01:11;;;;;;;7.00;5.47;;;;;;;;;;5020519;28;20213;-81
2021/12/13 02:03:40;;;;;;;7.67;5.87;;;;;;;;;;5027123;28;20210;-80
2021/12/13 02:06:08;;;;;;;9.87;6.90;;;;;;;;;;5026476;28;20211;-81
2021/12/13 02:08:37;;;;;;;7.77;5.90;;;;;;;;;;5026486;28;20219;-81
2021/12/13 02:11:05;;;;;;;6.93;5.47;;;;;;;;;;5025687;28;20271;-81
2021/12/13 02:13:37;;;;;;;7.33;5.77;;;;;;;;;;5027373;28;20260;-81
2021/12/13 02:18:51;;;;;;;8.83;6.50;;;;;;;;;;5027976;28;20230;-81
2021/12/13 02:21:25;;;;;;;10.57;8.53;;;;;;;;;;5028274;28;20227;-81
2021/12/13 02:23:54;;;;;;;8.63;7.73;;;;;;;;;;5029184;28;20202;-80
2021/12/13 02:26:22;;;;;;;10.27;9.27;;;;;;;;;;5028629;28;20227;-81
2021/12/13 02:28:55;;;;;;;11.57;9.17;;;;;;;;;;5029246;28;20237;-81
2021/12/13 02:31:23;;;;;;;9.27;8.37;;;;;;;;;;5028244;28;20208;-80
2021/12/13 02:33:53;;;;;;;9.67;8.07;;;;;;;;;;5028712;28;20237;-81
2021/12/13 02:36:22;;;;;;;9.30;8.40;;;;;;;;;;5021823;28;20222;-81
2021/12/13 02:38:50;;;;;;;9.60;8.40;;;;;;;;;;5022008;28;20222;-80
2021/12/13 02:41:19;;;;;;;9.33;8.43;;;;;;;;;;5029838;28;20231;-81
2021/12/13 02:43:49;;;;;;;10.07;7.90;;;;;;;;;;5022161;28;20221;-80
2021/12/13 02:46:16;;;;;;;9.03;7.97;;;;;;;;;;5027080;28;20254;-81
2021/12/13 02:48:46;;;;;;;9.27;7.73;;;;;;;;;;5027879;28;20233;-81
2021/12/13 02:51:18;;;;;;;8.40;7.20;;;;;;;;;;5027218;28;20222;-81
2021/12/13 02:53:50;;;;;;;8.13;6.80;;;;;;;;;;5025412;28;20238;-81
2021/12/13 02:56:20;;;;;;;7.93;6.53;;;;;;;;;;5024958;28;20215;-81
2021/12/13 02:58:48;;;;;;;9.00;6.93;;;;;;;;;;5021115;28;20202;-81
2021/12/13 03:01:18;;;;;;;9.17;7.43;;;;;;;;;;5017861;28;20241;-81
2021/12/13 03:03:49;;;;;;;9.40;8.47;;;;;;;;;;5019436;28;20203;-81
2021/12/13 03:06:18;;;;;;;8.00;7.20;;;;;;;;;;5017839;28;20353;-81
2021/12/13 03:08:48;;;;;;;8.53;7.63;;;;;;;;;;5019467;28;20296;-81
2021/12/13 03:11:23;;;;;;;7.73;6.53;;;;;;;;;;5017550;28;20199;-81
2021/12/13 03:13:54;;;;;;;7.60;6.80;;;;;;;;;;5017520;28;20209;-81
2021/12/13 03:16:25;;;;;;;8.17;6.00;;;;;;;;;;5013720;28;20215;-80
2021/12/13 03:18:56;;;;;;;7.90;6.73;;;;;;;;;;5012503;28;20213;-81
2021/12/13 03:21:33;;;;;;;7.30;6.37;;;;;;;;;;5015054;28;20209;-81
2021/12/13 03:24:17;;;;;;;7.67;6.03;;;;;;;;;;5014104;28;20233;-81
2021/12/13 03:27:07;;;;;;;7.80;7.00;;;;;;;;;;5015932;28;20223;-81
2021/12/13 03:29:43;;;;;;;6.50;5.90;;;;;;;;;;5019176;28;20221;-81
2021/12/13 03:32:11;;;;;;;6.90;6.10;;;;;;;;;;5017043;28;20218;-80
2021/12/13 03:34:40;;;;;;;7.10;5.33;;;;;;;;;;5011612;28;20250;-80
2021/12/13 03:37:09;;;;;;;7.73;6.00;;;;;;;;;;5015422;28;20222;-80
2021/12/13 03:39:39;;;;;;;7.43;5.93;;;;;;;;;;5021687;28;20203;-80
2021/12/13 03:42:09;;;;;;;7.87;7.07;;;;;;;;;;5017198;28;20207;-80
2021/12/13 03:44:38;;;;;;;7.13;6.43;;;;;;;;;;5026009;28;20245;-82
2021/12/13 03:47:10;;;;;;;6.50;5.80;;;;;;;;;;5018323;28;20297;-82
2021/12/13 03:49:41;;;;;;;8.53;6.57;;;;;;;;;;5016448;28;20230;-82
2021/12/13 03:52:10;;;;;;;7.67;6.63;;;;;;;;;;5014253;28;20290;-80
2021/12/13 03:54:39;;;;;;;7.80;6.27;;;;;;;;;;5020800;28;20289;-80
2021/12/13 03:57:06;;;;;;;7.20;6.47;;;;;;;;;;5023024;28;20276;-80
2021/12/13 03:59:34;;;;;;;6.13;5.50;;;;;;;;;;5017199;28;20262;-80
2021/12/13 04:02:03;;;;;;;6.87;6.17;;;;;;;;;;5016111;28;20255;-80
2021/12/13 04:04:34;;;;;;;7.03;5.90;;;;;;;;;;5025155;28;20206;-80
2021/12/13 04:07:03;;;;;;;7.73;6.17;;;;;;;;;;5025647;28;20250;-80
2021/12/13 04:09:31;;;;;;;6.40;5.27;;;;;;;;;;5026401;28;20206;-79
2021/12/13 04:12:00;;;;;;;6.17;5.57;;;;;;;;;;5031755;28;20218;-79
2021/12/13 04:14:32;;;;;;;7.73;5.63;;;;;;;;;;5032391;28;20235;-80
2021/12/13 04:17:09;;;;;;;6.00;5.50;;;;;;;;;;5025128;28;20224;-80
2021/12/13 04:19:50;;;;;;;7.07;5.90;;;;;;;;;;5026534;28;20206;-80
2021/12/13 04:22:18;;;;;;;6.10;5.50;;;;;;;;;;5032714;28;20233;-80
2021/12/13 04:24:47;;;;;;;6.87;5.43;;;;;;;;;;5021411;28;20238;-80
2021/12/13 04:27:18;;;;;;;6.47;5.53;;;;;;;;;;5027113;28;20728;-80
2021/12/13 04:29:47;;;;;;;7.83;5.37;;;;;;;;;;5019891;28;20231;-80
2021/12/13 04:32:17;;;;;;;6.73;5.10;;;;;;;;;;5026377;28;20198;-80
2021/12/13 04:34:45;;;;;;;6.87;5.57;;;;;;;;;;5025193;28;20218;-80
2021/12/13 04:37:15;;;;;;;6.97;5.77;;;;;;;;;;5025701;28;20226;-80
2021/12/13 04:39:44;;;;;;;6.60;5.53;;;;;;;;;;5025048;28;20203;-80
2021/12/13 04:42:13;;;;;;;6.03;5.37;;;;;;;;;;5025036;28;20210;-80
2021/12/13 04:44:45;;;;;;;7.40;5.30;;;;;;;;;;5025933;28;20207;-80
2021/12/13 04:47:14;;;;;;;6.97;5.50;;;;;;;;;;5026801;28;20261;-80
2021/12/13 04:49:43;;;;;;;6.87;5.83;;;;;;;;;;5025640;28;20206;-80
2021/12/13 04:52:13;;;;;;;6.43;5.80;;;;;;;;;;5025941;28;20245;-81
2021/12/13 04:54:43;;;;;;;5.20;4.70;;;;;;;;;;5023673;28;20219;-80
2021/12/13 04:57:10;;;;;;;5.90;5.30;;;;;;;;;;5023333;28;20272;-80
2021/12/13 04:59:38;;;;;;;7.67;5.63;;;;;;;;;;5023004;28;20225;-80
2021/12/13 05:02:07;;;;;;;5.93;5.10;;;;;;;;;;5023982;28;20297;-80
2021/12/13 05:04:35;;;;;;;7.77;5.50;;;;;;;;;;5024060;28;20203;-80
2021/12/13 05:07:05;;;;;;;5.40;4.90;;;;;;;;;;5022797;28;20248;-80
2021/12/13 05:09:33;;;;;;;6.30;4.87;;;;;;;;;;5020884;28;20191;-80
2021/12/13 05:12:09;;;;;;;6.03;5.43;;;;;;;;;;5018142;28;20207;-80
2021/12/13 05:14:37;;;;;;;6.30;5.33;;;;;;;;;;5020277;28;20248;-80
2021/12/13 05:17:08;;;;;;;6.30;5.50;;;;;;;;;;5012438;28;20265;-80
2021/12/13 05:19:37;;;;;;;6.10;5.27;;;;;;;;;;5019848;28;20234;-80
2021/12/13 05:22:06;;;;;;;8.13;5.33;;;;;;;;;;5019901;28;20218;-80
2021/12/13 05:24:35;;;;;;;6.47;5.30;;;;;;;;;;5019896;28;20268;-80
2021/12/13 05:27:05;;;;;;;5.77;5.27;;;;;;;;;;5019674;28;20246;-80
2021/12/13 05:29:35;;;;;;;6.10;5.50;;;;;;;;;;5017611;28;20266;-80
2021/12/13 05:32:05;;;;;;;6.57;5.17;;;;;;;;;;5020958;28;20233;-80
2021/12/13 05:34:39;;;;;;;5.97;5.03;;;;;;;;;;5021203;28;20249;-81
2021/12/13 05:37:07;;;;;;;8.43;5.67;;;;;;;;;;5017184;28;20321;-80
2021/12/13 05:39:35;;;;;;;6.20;5.60;;;;;;;;;;5023485;28;20214;-80
2021/12/13 05:42:05;;;;;;;6.77;5.53;;;;;;;;;;5023911;28;20211;-80
2021/12/13 05:44:35;;;;;;;6.57;5.20;;;;;;;;;;5024039;28;20199;-80
2021/12/13 05:47:03;;;;;;;6.60;5.33;;;;;;;;;;5021585;28;20234;-80
2021/12/13 05:49:32;;;;;;;6.30;5.70;;;;;;;;;;5024580;28;20222;-80
2021/12/13 05:52:05;;;;;;;6.47;5.30;;;;;;;;;;5025685;28;20208;-80
2021/12/13 05:54:33;;;;;;;8.13;6.10;;;;;;;;;;5027966;28;20230;-81
2021/12/13 05:57:02;;;;;;;5.67;4.97;;;;;;;;;;5029124;28;20214;-81
2021/12/13 05:59:31;;;;;;;7.33;5.80;;;;;;;;;;5026862;28;20241;-81
2021/12/13 06:02:07;;;;;;;6.97;5.70;;;;;;;;;;5027769;28;20199;-81
2021/12/13 06:04:38;;;;;;;7.50;6.30;;;;;;;;;;5023576;28;20194;-81
2021/12/13 06:07:15;;;;;;;8.77;6.50;;;;;;;;;;5027968;28;20245;-80
2021/12/13 06:09:45;;;;;;;7.93;6.33;;;;;;;;;;5027058;28;20202;-80
2021/12/13 06:12:14;;;;;;;9.10;6.13;;;;;;;;;;5028115;28;20217;-81
2021/12/13 06:14:41;;;;;;;9.53;5.77;;;;;;;;;;5028698;28;20219;-81
2021/12/13 06:17:14;;;;;;;6.60;5.90;;;;;;;;;;5029294;28;20245;-81
2021/12/13 06:19:46;;;;;;;6.23;5.63;;;;;;;;;;5027823;28;20206;-81
2021/12/13 06:22:14;;;;;;;8.63;5.83;;;;;;;;;;5028538;28;20206;-80
2021/12/13 06:24:43;;;;;;;7.00;6.00;;;;;;;;;;5021322;28;20205;-80
2021/12/13 06:27:16;;;;;;;7.13;6.13;;;;;;;;;;5024168;28;20227;-81
2021/12/13 06:29:59;;;;;;;6.33;5.63;;;;;;;;;;5026041;28;20300;-81
2021/12/13 06:32:33;;;;;;;6.57;5.80;;;;;;;;;;5022367;28;20195;-81
2021/12/13 06:35:01;;;;;;;7.73;6.70;;;;;;;;;;5024807;28;20206;-81
2021/12/13 06:37:30;;;;;;;8.73;6.67;;;;;;;;;;5023341;28;20198;-81
2021/12/13 06:40:16;;;;;;;7.77;6.97;;;;;;;;;;5025156;28;20221;-80
2021/12/13 06:42:43;;;;;;;8.37;5.87;;;;;;;;;;5016748;28;20222;-89
2021/12/13 06:45:21;;;;;;;7.60;6.20;;;;;;;;;;5015533;28;20191;-83
2021/12/13 06:47:50;;;;;;;6.90;6.10;;;;;;;;;;5013068;28;20198;-84
2021/12/13 06:50:22;;;;;;;7.17;6.47;;;;;;;;;;5010533;28;20218;-85
2021/12/13 06:52:50;;;;;;;8.40;7.10;;;;;;;;;;5012132;28;20222;-84
2021/12/13 06:55:18;;;;;;;10.30;7.63;;;;;;;;;;5014501;28;20265;-84
2021/12/13 06:57:47;;;;;;;9.07;7.93;;;;;;;;;;5016668;28;20301;-84
2021/12/13 07:00:16;;;;;;;9.37;7.07;;;;;;;;;;5017443;28;20266;-84
2021/12/13 07:02:46;;;;;;;8.40;7.30;;;;;;;;;;5016658;28;20222;-84
2021/12/13 07:05:18;;;;;;;7.73;6.93;;;;;;;;;;5016318;28;20225;-84
2021/12/13 07:07:51;;;;;;;9.00;7.37;;;;;;;;;;5021577;28;20280;-85
2021/12/13 07:10:19;;;;;;;10.47;7.80;;;;;;;;;;5020949;28;20195;-86
2021/12/13 07:12:49;;;;;;;10.20;7.47;;;;;;;;;;5021517;28;20312;-85
2021/12/13 07:15:25;;;;;;;9.90;7.23;;;;;;;;;;5020542;28;20254;-85
2021/12/13 07:18:01;;;;;;;9.73;7.50;;;;;;;;;;5020377;28;20301;-84
2021/12/13 07:20:36;;;;;;;11.27;8.43;;;;;;;;;;5027222;28;20206;-86
2021/12/13 07:23:05;;;;;;;9.67;8.17;;;;;;;;;;5032202;28;20266;-85
2021/12/13 07:25:36;;;;;;;10.73;7.20;;;;;;;;;;5016106;28;20237;-83
2021/12/13 07:28:05;;;;;;;11.40;8.30;;;;;;;;;;5020511;28;20289;-84
2021/12/13 07:30:33;;;;;;;10.63;7.27;;;;;;;;;;5021110;28;20294;-85
2021/12/13 07:33:03;;;;;;;11.07;7.83;;;;;;;;;;5021332;28;20233;-85
2021/12/13 07:35:33;;;;;;;9.23;7.23;;;;;;;;;;5005553;28;20230;-84
2021/12/13 07:38:02;;;;;;;9.67;7.37;;;;;;;;;;5009299;28;20214;-83
2021/12/13 07:40:31;;;;;;;9.10;7.30;;;;;;;;;;5012257;28;20296;-84
2021/12/13 07:43:01;;;;;;;10.50;8.13;;;;;;;;;;5004653;28;20314;-84
2021/12/13 07:45:30;;;;;;;9.07;7.67;;;;;;;;;;5013206;28;20246;-84
2021/12/13 07:47:58;;;;;;;11.23;8.73;;;;;;;;;;5028881;23;20269;-80
2021/12/13 07:50:26;;;;;;;11.97;8.30;;;;;;;;;;5021889;28;20199;-84
2021/12/13 07:52:56;;;;;;;10.67;7.87;;;;;;;;;;5024891;28;20237;-84
2021/12/13 07:55:28;;;;;;;10.33;8.10;;;;;;;;;;5019713;28;20289;-82
2021/12/13 07:57:57;;;;;;;9.67;7.93;;;;;;;;;;5020398;28;20230;-82
2021/12/13 08:00:26;;;;;;;9.60;7.83;;;;;;;;;;5017003;28;20206;-85
2021/12/13 08:02:59;;;;;;;9.37;7.33;;;;;;;;;;5018301;28;20224;-84
2021/12/13 08:05:28;;;;;;;9.47;8.10;;;;;;;;;;5023186;28;20203;-86
2021/12/13 08:08:01;;;;;;;10.33;7.17;;;;;;;;;;5014234;28;20234;-85
2021/12/13 08:10:30;;;;;;;8.40;7.30;;;;;;;;;;5020548;28;20195;-85
2021/12/13 08:13:05;;;;;;;9.37;7.90;;;;;;;;;;5022227;28;20273;-86
2021/12/13 08:15:37;;;;;;;9.10;7.47;;;;;;;;;;5021083;28;20276;-84
2021/12/13 08:18:10;;;;;;;10.10;7.20;;;;;;;;;;5021341;28;20238;-84
2021/12/13 08:20:42;;;;;;;10.33;7.70;;;;;;;;;;5022202;28;20294;-83
2021/12/13 08:23:16;;;;;;;9.93;7.47;;;;;;;;;;5024265;28;20199;-86
2021/12/13 08:25:43;;;;;;;8.13;6.70;;;;;;;;;;5024134;28;20214;-85
2021/12/13 08:28:15;;;;;;;8.17;7.13;;;;;;;;;;5022748;28;20249;-84
2021/12/13 08:30:47;;;;;;;8.47;7.60;;;;;;;;;;5022204;28;20209;-86
2021/12/13 08:33:16;;;;;;;7.97;7.10;;;;;;;;;;5018391;28;20218;-86
2021/12/13 08:35:47;;;;;;;9.20;7.13;;;;;;;;;;5017587;28;20226;-85
2021/12/13 08:38:27;;;;;;;9.23;6.67;;;;;;;;;;5025375;28;20234;-85
2021/12/13 08:40:55;;;;;;;7.23;6.53;;;;;;;;;;5016953;28;20210;-85
2021/12/13 08:43:33;;;;;;;9.13;6.10;;;;;;;;;;5022709;28;20210;-85
2021/12/13 08:46:03;;;;;;;7.73;6.87;;;;;;;;;;5022660;28;20199;-87
2021/12/13 08:48:31;;;;;;;9.17;6.90;;;;;;;;;;5019377;28;20278;-85
2021/12/13 08:51:00;;;;;;;7.53;6.70;;;;;;;;;;5021596;28;20203;-85
2021/12/13 08:53:30;;;;;;;7.80;7.00;;;;;;;;;;5022220;28;20210;-84
2021/12/13 08:56:04;;;;;;;7.77;6.70;;;;;;;;;;5021345;28;20226;-86
2021/12/13 08:58:53;;;;;;;8.50;6.87;;;;;;;;;;5016914;28;20245;-87
2021/12/13 09:04:06;;;;;;;7.93;6.87;;;;;;;;;;5011212;28;20209;-86
2021/12/13 09:06:34;;;;;;;6.93;6.27;;;;;;;;;;5022373;28;20222;-85
2021/12/13 09:09:09;;;;;;;7.17;6.33;;;;;;;;;;5008176;28;20214;-86
2021/12/13 09:11:39;;;;;;;10.67;7.47;;;;;;;;;;5020675;28;20216;-86
2021/12/13 09:14:13;;;;;;;10.10;7.67;;;;;;;;;;5021392;28;20218;-89
2021/12/13 09:17:17;;;;;;;8.97;8.00;;;;;;;;;;5020126;28;20241;-91
2021/12/13 09:19:51;;;;;;;9.13;7.23;;;;;;;;;;5007189;28;20217;-87
2021/12/13 09:22:20;;;;;;;8.00;7.20;;;;;;;;;;5023495;28;20284;-84
2021/12/13 09:24:53;;;;;;;8.27;7.37;;;;;;;;;;5022551;28;20203;-84
2021/12/13 09:27:25;;;;;;;9.03;7.30;;;;;;;;;;5020914;28;20250;-83
2021/12/13 09:29:58;;;;;;;7.40;6.13;;;;;;;;;;5027685;28;20265;-83
2021/12/13 09:32:31;;;;;;;7.87;6.40;;;;;;;;;;5027473;28;20207;-83
2021/12/13 09:35:13;;;;;;;6.20;5.60;;;;;;;;;;5021425;28;20218;-85
2021/12/13 09:37:40;;;;;;;8.20;6.33;;;;;;;;;;5024289;28;20218;-84
2021/12/13 09:40:10;;;;;;;6.80;6.17;;;;;;;;;;5021267;28;20195;-83
2021/12/13 09:42:45;;;;;;;7.37;5.90;;;;;;;;;;5021125;28;20206;-82
2021/12/13 09:45:13;;;;;;;8.33;6.27;;;;;;;;;;5021401;28;20280;-82
2021/12/13 09:47:47;;;;;;;7.70;6.67;;;;;;;;;;5022670;28;20299;-81
2021/12/13 09:50:17;;;;;;;8.47;7.23;;;;;;;;;;5023382;28;20207;-81
2021/12/13 09:52:46;;;;;;;10.80;7.07;;;;;;;;;;5024444;28;20211;-80
2021/12/13 09:55:17;;;;;;;8.90;6.70;;;;;;;;;;5023168;28;20237;-82
2021/12/13 09:57:50;;;;;;;7.90;7.13;;;;;;;;;;5025520;28;20223;-78
2021/12/13 10:00:19;;;;;;;12.30;7.77;;;;;;;;;;5021413;28;20268;-81
2021/12/13 10:02:49;;;;;;;9.53;6.73;;;;;;;;;;5020771;28;20260;-81
2021/12/13 10:05:18;;;;;;;8.50;6.37;;;;;;;;;;5031587;28;20205;-80
2021/12/13 10:07:46;;;;;;;8.70;6.80;;;;;;;;;;5033611;28;20245;-82
2021/12/13 10:10:17;;;;;;;7.90;6.30;;;;;;;;;;5029937;28;20221;-80
2021/12/13 10:12:47;;;;;;;8.27;6.87;;;;;;;;;;5022905;28;20202;-82
2021/12/13 10:15:15;;;;;;;8.20;5.93;;;;;;;;;;5021714;28;20222;-81
2021/12/13 10:17:45;;;;;;;7.87;6.27;;;;;;;;;;5022936;28;20246;-82
2021/12/13 10:20:13;;;;;;;8.13;7.33;;;;;;;;;;5022936;28;20237;-82
2021/12/13 10:22:41;;;;;;;8.03;7.23;;;;;;;;;;5021405;28;20268;-83
2021/12/13 10:25:10;;;;;;;7.27;6.53;;;;;;;;;;5016332;28;20199;-82
2021/12/13 10:27:39;;;;;;;8.90;6.83;;;;;;;;;;5024454;28;20285;-83
2021/12/13 10:30:12;;;;;;;9.00;7.33;;;;;;;;;;5022877;28;20210;-83
2021/12/13 10:32:42;;;;;;;8.40;6.90;;;;;;;;;;5022746;28;20210;-82
2021/12/13 10:35:13;;;;;;;7.87;7.03;;;;;;;;;;5022455;28;20257;-83
2021/12/13 10:37:42;;;;;;;9.77;7.20;;;;;;;;;;5022844;28;20254;-83
2021/12/13 10:40:12;;;;;;;7.73;6.87;;;;;;;;;;5025155;28;20237;-81
2021/12/13 10:42:49;;;;;;;12.00;9.07;;;;;;;;;;5018208;28;20210;-79
2021/12/13 10:48:05;;;;;;;12.23;8.60;;;;;;;;;;5022564;28;20242;-82
2021/12/13 10:50:34;;;;;;;12.17;9.63;;;;;;;;;;5017068;28;20206;-83
2021/12/13 10:53:02;;;;;;;11.70;9.47;;;;;;;;;;5017887;28;20207;-80
2021/12/13 10:55:31;;;;;;;10.53;8.77;;;;;;;;;;5023090;28;20219;-83
2021/12/13 10:58:00;;;;;;;11.37;9.47;;;;;;;;;;5016506;28;20233;-84
2021/12/13 11:00:29;;;;;;;11.73;8.60;;;;;;;;;;5020821;28;20213;-83
2021/12/13 11:02:59;;;;;;;11.13;8.83;;;;;;;;;;5020020;28;20202;-83
2021/12/13 11:05:28;;;;;;;9.63;8.10;;;;;;;;;;5024390;28;20269;-83
2021/12/13 11:07:57;;;;;;;8.10;7.30;;;;;;;;;;5015604;28;20237;-84
2021/12/13 11:10:26;;;;;;;10.93;8.03;;;;;;;;;;5018869;28;20233;-84
2021/12/13 11:12:57;;;;;;;12.17;8.73;;;;;;;;;;5016141;28;20203;-83
2021/12/13 11:15:27;;;;;;;11.07;8.40;;;;;;;;;;5020018;28;20309;-83
2021/12/13 11:17:55;;;;;;;12.97;8.33;;;;;;;;;;5019608;28;20223;-84
2021/12/13 11:20:25;;;;;;;9.40;7.90;;;;;;;;;;5019953;28;20211;-83
2021/12/13 11:22:52;;;;;;;9.03;8.00;;;;;;;;;;5021055;28;20233;-83
2021/12/13 11:25:21;;;;;;;15.23;9.97;;;;;;;;;;5020236;28;20203;-83
2021/12/13 11:27:49;;;;;;;13.57;10.63;;;;;;;;;;5019822;28;20277;-83
2021/12/13 11:30:18;;;;;;;12.30;10.27;;;;;;;;;;5018863;28;20294;-83
2021/12/13 11:33:26;;;;;;;13.33;10.63;;;;;;;;;;5015533;28;20198;-83
2021/12/13 11:36:14;;;;;;;16.97;11.37;;;;;;;;;;5013204;28;20221;-83
2021/12/13 11:39:01;;;;;;;16.00;11.33;;;;;;;;;;5014423;28;20225;-78
2021/12/13 11:41:51;;;;;;;17.33;11.90;;;;;;;;;;5018842;28;20206;-84
2021/12/13 11:44:40;;;;;;;18.00;12.30;;;;;;;;;;5004272;28;20230;-83
2021/12/13 11:47:43;;;;;;;12.73;11.40;;;;;;;;;;5016410;28;20223;-86
2021/12/13 11:50:31;;;;;;;13.80;11.00;;;;;;;;;;5011682;28;20642;-83
2021/12/13 11:53:13;;;;;;;17.07;11.80;;;;;;;;;;5017699;28;20237;-83
2021/12/13 11:56:10;;;;;;;14.17;10.97;;;;;;;;;;5013512;28;20317;-81
2021/12/13 11:58:58;;;;;;;14.47;10.83;;;;;;;;;;4986292;28;20210;-82
2021/12/13 12:01:40;;;;;;;14.40;10.73;;;;;;;;;;5004741;28;20253;-79
2021/12/13 12:04:26;;;;;;;15.60;11.90;;;;;;;;;;5007484;28;20213;-83
2021/12/13 12:07:10;;;;;;;13.97;11.37;;;;;;;;;;5011833;28;20221;-83
2021/12/13 12:09:52;;;;;;;14.60;11.13;;;;;;;;;;5009874;28;20233;-81
2021/12/13 12:12:29;;;;;;;17.43;12.57;;;;;;;;;;5007753;28;20207;-84
2021/12/13 12:15:01;;;;;;;15.50;12.27;;;;;;;;;;5008838;28;20209;-81
2021/12/13 12:17:29;;;;;;;16.00;12.40;;;;;;;;;;5006854;28;20223;-82
2021/12/13 12:19:59;;;;;;;15.47;12.20;;;;;;;;;;5007250;28;20198;-79
2021/12/13 12:22:32;;;;;;;16.60;11.53;;;;;;;;;;5012235;28;20229;-84
2021/12/13 12:25:05;;;;;;;18.20;12.03;;;;;;;;;;5008166;28;20206;-81
2021/12/13 12:27:42;;;;;;;15.40;11.97;;;;;;;;;;5011904;28;20233;-79
2021/12/13 12:30:11;;;;;;;15.83;11.30;;;;;;;;;;5012422;28;20194;-82
2021/12/13 12:32:42;;;;;;;12.33;10.63;;;;;;;;;;5012492;28;20198;-82
2021/12/13 12:35:11;;;;;;;13.87;12.10;;;;;;;;;;5020147;28;20241;-80
2021/12/13 12:37:57;;;;;;;16.53;11.80;;;;;;;;;;5026422;28;20238;-80
2021/12/13 12:40:27;;;;;;;15.53;11.80;;;;;;;;;;5007115;28;20265;-82
2021/12/13 12:42:57;;;;;;;15.57;12.00;;;;;;;;;;5005909;28;20199;-79
2021/12/13 12:45:27;;;;;;;17.60;12.40;;;;;;;;;;5013230;28;20202;-83
2021/12/13 12:48:06;;;;;;;17.20;13.00;;;;;;;;;;5012056;28;20290;-82
2021/12/13 12:50:35;;;;;;;19.53;13.50;;;;;;;;;;5016573;28;20229;-82
2021/12/13 12:53:04;;;;;;;18.97;13.37;;;;;;;;;;5010458;28;20198;-81
2021/12/13 12:55:34;;;;;;;15.73;12.63;;;;;;;;;;5016537;28;20257;-82
2021/12/13 12:58:07;;;;;;;16.77;12.27;;;;;;;;;;5015354;28;20226;-82
2021/12/13 13:00:36;;;;;;;13.63;11.00;;;;;;;;;;5014038;28;20261;-80
2021/12/13 13:03:04;;;;;;;14.50;11.17;;;;;;;;;;5012634;28;20234;-81
2021/12/13 13:05:32;;;;;;;11.37;10.23;;;;;;;;;;5016896;28;20198;-81
2021/12/13 13:08:02;;;;;;;15.07;11.87;;;;;;;;;;5020402;28;20226;-81
2021/12/13 13:10:50;;;;;;;14.83;10.73;;;;;;;;;;5015093;28;20237;-81
2021/12/13 13:13:19;;;;;;;15.87;10.93;;;;;;;;;;5026821;28;20222;-82
2021/12/13 13:15:48;;;;;;;12.10;10.80;;;;;;;;;;5017621;28;20217;-82
2021/12/13 13:18:17;;;;;;;14.20;11.77;;;;;;;;;;5016820;28;20253;-81
2021/12/13 13:20:46;;;;;;;12.87;10.90;;;;;;;;;;5013831;28;20203;-82
2021/12/13 13:23:14;;;;;;;13.70;11.20;;;;;;;;;;5014648;28;20217;-83
2021/12/13 13:25:46;;;;;;;12.40;10.43;;;;;;;;;;5009193;28;20243;-81
2021/12/13 13:28:24;;;;;;;13.47;10.97;;;;;;;;;;5016293;28;20738;-82
2021/12/13 13:30:54;;;;;;;12.90;11.23;;;;;;;;;;5015569;28;20287;-82
2021/12/13 13:33:32;;;;;;;15.47;11.50;;;;;;;;;;5017532;28;20202;-85
2021/12/13 13:36:03;;;;;;;12.80;11.23;;;;;;;;;;5017678;28;20222;-82
2021/12/13 13:38:35;;;;;;;14.70;11.93;;;;;;;;;;5010314;28;20221;-83
2021/12/13 13:41:04;;;;;;;13.67;11.30;;;;;;;;;;5015277;28;20203;-83
2021/12/13 13:43:47;;;;;;;14.83;12.10;;;;;;;;;;5017500;28;20221;-84
2021/12/13 13:46:28;;;;;;;15.93;11.97;;;;;;;;;;5032197;22;20289;-83
2021/12/13 13:49:02;;;;;;;13.67;11.30;;;;;;;;;;5022401;28;20232;-85
2021/12/13 13:51:32;;;;;;;12.23;11.03;;;;;;;;;;5017984;28;20218;-86
2021/12/13 13:54:01;;;;;;;12.30;10.95;;;;;;;;;;5083517;22;20199;31
2021/12/13 13:56:30;;;;;;;12.47;9.90;;;;;;;;;;4989239;28;20890;-83
2021/12/13 13:59:02;;;;;;;14.10;11.47;;;;;;;;;;4995560;28;20204;-83
2021/12/13 14:04:31;;;;;;;12.83;9.90;;;;;;;;;;4986162;28;20226;-87
2021/12/13 14:07:18;;;;;;;10.83;9.73;;;;;;;;;;5012602;28;20203;-87
2021/12/13 14:12:49;;;;;;;10.60;9.37;;;;;;;;;;4948551;28;20274;-88
2021/12/13 14:21:31;;;;;;;10.97;9.03;;;;;;;;;;4916249;29;20294;-88
2021/12/13 14:24:11;;;;;;;;;;;;;;;;;;;;;
2021/12/13 14:26:54;;;;;;;9.93;8.93;;;;;;;;;;4961784;28;20199;-89
2021/12/13 14:29:30;;;;;;;10.60;8.73;;;;;;;;;;4977244;28;20230;-89
2021/12/13 14:31:58;;;;;;;9.47;8.23;;;;;;;;;;4978541;28;20208;-87
2021/12/13 14:52:18;;;;;;;10.93;8.80;;;;;;;;;;5002920;28;20203;-88
2021/12/13 14:54:47;;;;;;;9.67;8.67;;;;;;;;;;5014867;28;20318;-85
2021/12/13 14:57:22;;;;;;;9.03;8.10;;;;;;;;;;5008431;28;20277;-88
2021/12/13 14:59:51;;;;;;;9.20;8.13;;;;;;;;;;5001791;28;20269;-87
2021/12/13 15:02:23;;;;;;;9.20;8.30;;;;;;;;;;5008888;28;20290;-87
2021/12/13 15:04:52;;;;;;;9.73;8.20;;;;;;;;;;5009197;28;20647;-87
2021/12/13 15:07:21;;;;;;;8.97;7.73;;;;;;;;;;5004067;28;20202;-87
2021/12/13 15:09:50;;;;;;;9.77;8.77;;;;;;;;;;5000472;28;20223;-87
2021/12/13 15:12:20;;;;;;;9.33;8.33;;;;;;;;;;5007533;28;20206;-87
2021/12/13 15:14:50;;;;;;;10.00;9.10;;;;;;;;;;5010103;28;20230;-87
2021/12/13 15:17:19;;;;;;;12.10;8.93;;;;;;;;;;5000971;28;20309;-87
2021/12/13 15:19:51;;;;;;;10.43;8.77;;;;;;;;;;4999320;28;20226;-87
2021/12/13 15:22:19;;;;;;;9.53;8.63;;;;;;;;;;4996675;28;20218;-87
2021/12/13 15:24:46;;;;;;;10.60;8.70;;;;;;;;;;4999396;28;20311;-88
2021/12/13 15:27:16;;;;;;;9.30;8.40;;;;;;;;;;4999338;28;20222;-88
2021/12/13 15:29:45;;;;;;;9.03;8.17;;;;;;;;;;5002135;28;20753;-86
2021/12/13 15:32:13;;;;;;;9.03;8.10;;;;;;;;;;5001501;28;20206;-87
2021/12/13 15:34:44;;;;;;;10.27;8.33;;;;;;;;;;5002546;28;20224;-88
2021/12/13 15:37:23;;;;;;;9.17;7.87;;;;;;;;;;5008587;28;20221;-87
2021/12/13 15:40:01;;;;;;;9.33;8.40;;;;;;;;;;5006799;28;20351;-87
2021/12/13 15:42:28;;;;;;;10.00;8.57;;;;;;;;;;5002145;28;20218;-87
2021/12/13 15:45:09;;;;;;;8.73;7.83;;;;;;;;;;5004526;28;20223;-87